createdAt,value
2023-05-15T00:01:55.978Z,13.36
2023-05-15T00:04:22.408Z,13.28
2023-05-15T00:06:48.909Z,13.26
2023-05-15T00:09:15.320Z,13.19
2023-05-15T00:11:41.740Z,13.20
2023-05-15T00:14:08.155Z,13.21
2023-05-15T00:16:34.719Z,13.10
2023-05-15T00:19:01.236Z,13.04
2023-05-15T00:21:27.664Z,12.96
2023-05-15T00:23:54.127Z,12.89
2023-05-15T00:26:20.818Z,12.75
2023-05-15T00:28:47.203Z,12.73
2023-05-15T00:31:14.804Z,12.67
2023-05-15T00:33:41.332Z,12.53
2023-05-15T00:36:09.611Z,12.38
2023-05-15T00:38:36.055Z,12.43
2023-05-15T00:41:04.613Z,12.26
2023-05-15T00:43:31.517Z,12.19
2023-05-15T00:45:59.006Z,12.24
2023-05-15T00:48:27.609Z,12.20
2023-05-15T00:50:55.454Z,12.21
2023-05-15T00:53:24.016Z,12.11
2023-05-15T00:55:51.971Z,12.12
2023-05-15T00:58:21.258Z,12.09
2023-05-15T01:00:49.633Z,12.14
2023-05-15T01:03:17.757Z,12.16
2023-05-15T01:05:45.048Z,12.07
2023-05-15T01:08:27.561Z,12.00
2023-05-15T01:10:54.255Z,12.01
2023-05-15T01:13:22.341Z,12.09
2023-05-15T01:15:49.332Z,12.10
2023-05-15T01:18:16.986Z,12.20
2023-05-15T01:20:49.146Z,12.18
2023-05-15T01:23:27.980Z,12.11
2023-05-15T01:26:25.955Z,11.96
2023-05-15T01:29:01.193Z,11.81
2023-05-15T01:31:32.569Z,11.77
2023-05-15T01:34:03.914Z,11.76
2023-05-15T01:36:56.409Z,11.74
2023-05-15T01:39:27.395Z,11.58
2023-05-15T01:42:08.331Z,11.62
2023-05-15T01:44:38.102Z,11.58
2023-05-15T01:47:13.558Z,11.56
2023-05-15T01:49:43.078Z,11.58
2023-05-15T01:52:30.866Z,11.54
2023-05-15T01:54:58.482Z,11.57
2023-05-15T01:57:26.764Z,11.50
2023-05-15T01:59:55.154Z,11.48
2023-05-15T02:02:23.768Z,11.44
2023-05-15T02:04:52.231Z,11.31
2023-05-15T02:07:20.723Z,11.26
2023-05-15T02:09:48.050Z,11.20
2023-05-15T02:12:15.482Z,11.08
2023-05-15T02:14:42.875Z,11.02
2023-05-15T02:17:09.438Z,10.98
2023-05-15T02:19:35.840Z,10.95
2023-05-15T02:22:02.587Z,10.97
2023-05-15T02:24:29.013Z,10.94
2023-05-15T02:27:05.294Z,10.94
2023-05-15T02:29:37.404Z,10.85
2023-05-15T02:32:13.058Z,10.98
2023-05-15T02:34:49.535Z,11.06
2023-05-15T02:37:24.597Z,11.10
2023-05-15T02:39:54.541Z,10.89
2023-05-15T02:42:22.172Z,10.80
2023-05-15T02:44:48.897Z,10.70
2023-05-15T02:47:16.532Z,10.64
2023-05-15T02:49:43.091Z,10.55
2023-05-15T02:52:09.611Z,10.57
2023-05-15T02:54:36.051Z,10.57
2023-05-15T02:57:02.548Z,10.63
2023-05-15T02:59:29.012Z,10.62
2023-05-15T03:01:55.547Z,10.62
2023-05-15T03:04:22.034Z,10.57
2023-05-15T03:06:48.535Z,10.55
2023-05-15T03:09:14.978Z,10.55
2023-05-15T03:11:41.412Z,10.62
2023-05-15T03:14:07.918Z,10.61
2023-05-15T03:16:34.399Z,10.59
2023-05-15T03:19:00.913Z,10.59
2023-05-15T03:21:27.335Z,10.52
2023-05-15T03:23:53.871Z,10.54
2023-05-15T03:26:20.461Z,10.50
2023-05-15T03:28:46.893Z,10.49
2023-05-15T03:31:14.281Z,10.54
2023-05-15T03:33:40.848Z,10.47
2023-05-15T03:36:07.825Z,10.50
2023-05-15T03:38:34.221Z,10.50
2023-05-15T03:41:00.644Z,10.57
2023-05-15T03:43:27.099Z,10.56
2023-05-15T03:45:53.572Z,10.55
2023-05-15T03:48:19.985Z,10.62
2023-05-15T03:50:46.512Z,10.59
2023-05-15T03:53:12.946Z,10.64
2023-05-15T03:55:39.382Z,10.59
2023-05-15T03:58:05.813Z,10.64
2023-05-15T04:00:33.611Z,10.66
2023-05-15T04:03:00.104Z,10.75
2023-05-15T04:05:26.924Z,10.81
2023-05-15T04:07:53.621Z,10.87
2023-05-15T04:10:20.088Z,10.90
2023-05-15T04:12:46.569Z,10.99
2023-05-15T04:15:17.283Z,10.95
2023-05-15T04:17:48.137Z,10.90
2023-05-15T04:20:16.166Z,10.92
2023-05-15T04:22:43.559Z,10.93
2023-05-15T04:25:11.433Z,11.04
2023-05-15T04:27:38.541Z,11.16
2023-05-15T04:30:05.968Z,11.25
2023-05-15T04:32:33.794Z,11.25
2023-05-15T04:35:01.239Z,11.24
2023-05-15T04:37:28.388Z,11.28
2023-05-15T04:39:55.219Z,11.33
2023-05-15T04:42:21.630Z,11.30
2023-05-15T04:44:48.027Z,11.35
2023-05-15T04:47:14.433Z,11.36
2023-05-15T04:49:41.902Z,11.37
2023-05-15T04:52:08.332Z,11.42
2023-05-15T04:54:34.712Z,11.48
2023-05-15T04:57:01.326Z,11.58
2023-05-15T04:59:28.698Z,11.67
2023-05-15T05:01:55.217Z,11.82
2023-05-15T05:04:21.654Z,11.89
2023-05-15T05:06:48.064Z,12.09
2023-05-15T05:09:14.473Z,12.37
2023-05-15T05:11:43.904Z,12.52
2023-05-15T05:14:11.312Z,12.78
2023-05-15T05:16:37.804Z,13.04
2023-05-15T05:19:04.558Z,13.24
2023-05-15T05:21:31.294Z,13.47
2023-05-15T05:23:57.737Z,13.60
2023-05-15T05:26:24.789Z,13.88
2023-05-15T05:28:51.217Z,14.06
2023-05-15T05:31:17.773Z,14.22
2023-05-15T05:33:44.240Z,14.42
2023-05-15T05:36:10.679Z,14.58
2023-05-15T05:38:38.177Z,14.92
2023-05-15T05:41:04.594Z,15.18
2023-05-15T05:43:31.350Z,15.56
2023-05-15T05:45:57.828Z,15.84
2023-05-15T05:48:24.241Z,16.11
2023-05-15T05:50:51.404Z,16.42
2023-05-15T05:53:17.811Z,16.58
2023-05-15T05:55:44.447Z,16.68
2023-05-15T05:58:24.027Z,17.13
2023-05-15T06:00:51.254Z,17.11
2023-05-15T06:03:17.799Z,17.40
2023-05-15T06:05:44.416Z,17.53
2023-05-15T06:08:11.052Z,17.77
2023-05-15T06:10:37.561Z,17.80
2023-05-15T06:13:03.969Z,17.97
2023-05-15T06:15:30.634Z,17.79
2023-05-15T06:17:57.064Z,17.78
2023-05-15T06:20:23.707Z,17.96
2023-05-15T06:22:50.249Z,18.12
2023-05-15T06:25:16.731Z,18.67
2023-05-15T06:27:43.196Z,18.70
2023-05-15T06:30:10.277Z,18.98
2023-05-15T06:32:36.735Z,19.25
2023-05-15T06:35:03.351Z,19.64
2023-05-15T06:37:30.268Z,19.44
2023-05-15T06:39:56.719Z,19.49
2023-05-15T06:42:23.593Z,19.69
2023-05-15T06:44:50.046Z,19.69
2023-05-15T06:47:16.615Z,19.94
2023-05-15T06:49:43.029Z,20.19
2023-05-15T06:52:09.450Z,20.46
2023-05-15T06:54:35.999Z,20.74
2023-05-15T06:57:02.436Z,21.24
2023-05-15T06:59:28.906Z,21.45
2023-05-15T07:01:56.105Z,21.68
2023-05-15T07:04:22.695Z,21.51
2023-05-15T07:06:49.148Z,21.84
2023-05-15T07:09:15.564Z,21.65
2023-05-15T07:11:42.230Z,22.00
2023-05-15T07:14:08.673Z,21.99
2023-05-15T07:16:35.112Z,22.16
2023-05-15T07:19:01.762Z,21.96
2023-05-15T07:21:28.297Z,21.83
2023-05-15T07:23:54.729Z,21.52
2023-05-15T07:26:32.417Z,21.63
2023-05-15T07:29:04.090Z,21.52
2023-05-15T07:31:33.785Z,21.49
2023-05-15T07:34:00.320Z,21.45
2023-05-15T07:36:26.764Z,21.50
2023-05-15T07:38:53.185Z,21.43
2023-05-15T07:41:19.597Z,21.47
2023-05-15T07:43:46.273Z,21.73
2023-05-15T07:46:12.782Z,21.71
2023-05-15T07:48:39.257Z,21.47
2023-05-15T07:51:06.285Z,21.55
2023-05-15T07:53:33.265Z,21.72
2023-05-15T07:55:59.859Z,21.88
2023-05-15T07:58:26.281Z,21.80
2023-05-15T08:00:52.865Z,21.61
2023-05-15T08:03:19.547Z,21.65
2023-05-15T08:05:47.184Z,21.63
2023-05-15T08:08:13.626Z,21.60
2023-05-15T08:10:40.102Z,21.83
2023-05-15T08:13:07.099Z,21.93
2023-05-15T08:15:33.663Z,21.97
2023-05-15T08:18:00.249Z,22.17
2023-05-15T08:20:26.737Z,22.32
2023-05-15T08:22:53.145Z,22.50
2023-05-15T08:25:19.572Z,22.75
2023-05-15T08:27:45.980Z,22.74
2023-05-15T08:30:13.129Z,22.63
2023-05-15T08:32:39.606Z,22.50
2023-05-15T08:35:06.606Z,22.22
2023-05-15T08:37:33.704Z,22.14
2023-05-15T08:40:00.215Z,21.97
2023-05-15T08:42:37.727Z,22.08
2023-05-15T08:45:05.380Z,22.06
2023-05-15T08:47:35.470Z,21.98
2023-05-15T08:50:14.275Z,22.10
2023-05-15T08:52:42.768Z,22.34
2023-05-15T08:55:10.832Z,22.23
2023-05-15T08:57:37.850Z,22.22
2023-05-15T09:00:09.258Z,22.24
2023-05-15T09:02:37.453Z,22.23
2023-05-15T09:05:06.161Z,22.05
2023-05-15T09:07:33.150Z,21.60
2023-05-15T09:10:01.200Z,21.80
2023-05-15T09:12:28.039Z,21.52
2023-05-15T09:15:17.223Z,21.67
2023-05-15T09:17:45.130Z,21.60
2023-05-15T09:20:32.206Z,21.67
2023-05-15T09:23:00.208Z,21.67
2023-05-15T09:25:34.545Z,21.72
2023-05-15T09:28:01.113Z,21.68
2023-05-15T09:30:28.044Z,21.43
2023-05-15T09:32:56.256Z,21.28
2023-05-15T09:35:36.598Z,21.48
2023-05-15T09:38:07.836Z,21.49
2023-05-15T09:40:34.288Z,21.39
2023-05-15T09:43:00.749Z,21.30
2023-05-15T09:45:29.801Z,21.34
2023-05-15T09:47:59.355Z,21.35
2023-05-15T09:50:35.411Z,21.43
2023-05-15T09:53:02.239Z,21.40
2023-05-15T09:55:31.919Z,21.32
2023-05-15T09:58:06.330Z,21.16
2023-05-15T10:00:34.141Z,21.31
2023-05-15T10:03:05.091Z,21.41
2023-05-15T10:05:42.589Z,21.49
2023-05-15T10:08:09.802Z,21.53
2023-05-15T10:10:36.236Z,21.67
2023-05-15T10:13:05.464Z,21.78
2023-05-15T10:15:32.966Z,21.67
2023-05-15T10:18:00.412Z,22.03
2023-05-15T10:20:27.357Z,22.05
2023-05-15T10:22:56.500Z,22.15
2023-05-15T10:25:50.447Z,22.13
2023-05-15T10:28:17.239Z,22.14
2023-05-15T10:30:44.025Z,22.17
2023-05-15T10:33:11.432Z,22.06
2023-05-15T10:35:39.851Z,21.79
2023-05-15T10:38:07.379Z,21.72
2023-05-15T10:40:37.370Z,21.84
2023-05-15T10:43:04.852Z,22.01
2023-05-15T10:45:31.882Z,22.23
2023-05-15T10:47:59.358Z,22.21
2023-05-15T10:50:27.337Z,22.20
2023-05-15T10:52:55.877Z,22.37
2023-05-15T10:55:23.081Z,22.65
2023-05-15T10:57:49.745Z,22.81
2023-05-15T11:00:22.174Z,22.94
2023-05-15T11:02:49.756Z,23.00
2023-05-15T11:05:16.286Z,23.20
2023-05-15T11:07:42.758Z,23.32
2023-05-15T11:10:27.731Z,23.12
2023-05-15T11:12:58.425Z,23.12
2023-05-15T11:15:25.073Z,23.02
2023-05-15T11:18:06.067Z,22.96
2023-05-15T11:20:43.044Z,22.77
2023-05-15T11:23:09.649Z,22.45
2023-05-15T11:25:37.076Z,22.23
2023-05-15T11:28:04.693Z,22.15
2023-05-15T11:30:36.290Z,21.93
2023-05-15T11:33:08.664Z,21.93
2023-05-15T11:35:45.913Z,21.99
2023-05-15T11:38:17.467Z,22.22
2023-05-15T11:40:49.131Z,22.36
2023-05-15T11:43:28.099Z,22.30
2023-05-15T11:45:56.326Z,22.04
2023-05-15T11:48:24.364Z,22.31
2023-05-15T11:50:53.665Z,22.57
2023-05-15T11:53:23.005Z,22.52
2023-05-15T11:55:52.140Z,22.39
2023-05-15T11:58:21.142Z,22.48
2023-05-15T12:00:49.190Z,22.48
2023-05-15T12:03:23.915Z,22.57
2023-05-15T12:05:58.953Z,22.37
2023-05-15T12:08:27.210Z,22.75
2023-05-15T12:10:53.634Z,22.71
2023-05-15T12:13:21.236Z,22.43
2023-05-15T12:15:47.643Z,22.33
2023-05-15T12:18:14.352Z,22.45
2023-05-15T12:20:46.674Z,22.70
2023-05-15T12:23:17.160Z,23.13
2023-05-15T12:25:46.571Z,22.95
2023-05-15T12:28:13.820Z,23.03
2023-05-15T12:30:42.129Z,23.38
2023-05-15T12:33:10.256Z,23.65
2023-05-15T12:35:41.241Z,24.06
2023-05-15T12:38:07.667Z,24.34
2023-05-15T12:40:34.923Z,24.48
2023-05-15T12:43:06.223Z,24.33
2023-05-15T12:45:35.113Z,24.07
2023-05-15T12:48:01.777Z,24.27
2023-05-15T12:50:30.678Z,24.44
2023-05-15T12:52:58.351Z,24.43
2023-05-15T12:55:32.626Z,24.68
2023-05-15T12:58:02.241Z,24.25
2023-05-15T13:00:29.528Z,23.87
2023-05-15T13:02:57.261Z,23.88
2023-05-15T13:05:28.176Z,24.36
2023-05-15T13:07:55.222Z,24.41
2023-05-15T13:10:23.529Z,24.54
2023-05-15T13:12:51.986Z,24.12
2023-05-15T13:15:44.965Z,24.39
2023-05-15T13:18:13.970Z,24.25
2023-05-15T13:20:43.980Z,23.67
2023-05-15T13:23:11.778Z,24.31
2023-05-15T13:25:38.263Z,24.52
2023-05-15T13:28:06.877Z,24.34
2023-05-15T13:30:34.534Z,23.85
2023-05-15T13:33:01.736Z,23.95
2023-05-15T13:35:28.690Z,24.29
2023-05-15T13:37:55.367Z,23.71
2023-05-15T13:40:21.835Z,23.51
2023-05-15T13:42:48.273Z,23.43
2023-05-15T13:45:16.361Z,23.48
2023-05-15T13:47:43.462Z,24.01
2023-05-15T13:50:12.453Z,24.08
2023-05-15T13:52:39.684Z,23.81
2023-05-15T13:55:06.922Z,23.78
2023-05-15T13:57:33.327Z,24.00
2023-05-15T13:59:59.726Z,23.93
2023-05-15T14:02:26.986Z,23.99
2023-05-15T14:04:53.826Z,23.99
2023-05-15T14:07:23.878Z,23.41
2023-05-15T14:09:51.477Z,21.22
2023-05-15T14:12:18.261Z,20.61
2023-05-15T14:14:47.899Z,19.83
2023-05-15T14:17:15.083Z,19.30
2023-05-15T14:19:41.733Z,19.23
2023-05-15T14:22:08.343Z,19.32
2023-05-15T14:24:34.740Z,19.68
2023-05-15T14:27:01.595Z,19.79
2023-05-15T14:29:27.988Z,19.86
2023-05-15T14:31:54.480Z,19.47
2023-05-15T14:34:22.489Z,19.56
2023-05-15T14:36:49.628Z,19.21
2023-05-15T14:39:16.710Z,19.08
2023-05-15T14:41:44.070Z,19.04
2023-05-15T14:44:10.596Z,19.13
2023-05-15T14:46:38.021Z,19.19
2023-05-15T14:49:05.086Z,18.89
2023-05-15T14:51:32.210Z,19.05
2023-05-15T14:53:58.859Z,19.05
2023-05-15T14:56:25.907Z,19.22
2023-05-15T14:58:53.607Z,19.41
2023-05-15T15:01:20.699Z,19.41
2023-05-15T15:03:48.002Z,19.39
2023-05-15T15:06:14.695Z,19.40
2023-05-15T15:08:41.234Z,19.23
2023-05-15T15:11:07.846Z,18.95
2023-05-15T15:13:34.432Z,19.19
2023-05-15T15:16:00.904Z,19.26
2023-05-15T15:18:27.394Z,19.40
2023-05-15T15:20:53.985Z,19.30
2023-05-15T15:23:20.556Z,19.21
2023-05-15T15:25:47.154Z,19.29
2023-05-15T15:28:13.549Z,19.11
2023-05-15T15:30:40.117Z,18.83
2023-05-15T15:33:06.629Z,18.85
2023-05-15T15:35:33.226Z,19.04
2023-05-15T15:37:59.838Z,18.93
2023-05-15T15:40:26.432Z,19.25
2023-05-15T15:42:54.157Z,19.49
2023-05-15T15:45:20.812Z,19.61
2023-05-15T15:47:47.283Z,19.47
2023-05-15T15:50:13.710Z,19.54
2023-05-15T15:52:40.240Z,19.85
2023-05-15T15:55:07.312Z,19.84
2023-05-15T15:57:33.737Z,19.82
2023-05-15T16:00:00.225Z,19.68
2023-05-15T16:02:26.698Z,19.63
2023-05-15T16:04:53.124Z,19.50
2023-05-15T16:07:19.606Z,19.51
2023-05-15T16:09:49.325Z,19.79
2023-05-15T16:12:20.220Z,19.72
2023-05-15T16:14:46.610Z,19.77
2023-05-15T16:17:13.038Z,19.73
2023-05-15T16:19:39.456Z,19.72
2023-05-15T16:22:05.865Z,19.62
2023-05-15T16:24:32.607Z,19.47
2023-05-15T16:26:59.128Z,19.51
2023-05-15T16:29:25.987Z,19.40
2023-05-15T16:31:52.940Z,19.35
2023-05-15T16:34:19.437Z,19.21
2023-05-15T16:36:45.856Z,19.17
2023-05-15T16:39:12.252Z,18.95
2023-05-15T16:41:38.703Z,18.55
2023-05-15T16:44:09.425Z,18.39
2023-05-15T16:46:35.969Z,18.29
2023-05-15T16:49:02.386Z,18.32
2023-05-15T16:51:28.815Z,18.30
2023-05-15T16:53:56.426Z,18.05
2023-05-15T16:56:22.813Z,17.81
2023-05-15T16:58:50.594Z,17.61
2023-05-15T17:01:17.065Z,17.75
2023-05-15T17:03:44.093Z,17.60
2023-05-15T17:06:10.696Z,17.46
2023-05-15T17:08:37.136Z,17.23
2023-05-15T17:11:04.127Z,17.24
2023-05-15T17:13:30.528Z,17.16
2023-05-15T17:15:56.959Z,17.33
2023-05-15T17:18:23.598Z,17.21
2023-05-15T17:20:50.020Z,17.21
2023-05-15T17:23:16.440Z,17.15
2023-05-15T17:25:42.841Z,17.26
2023-05-15T17:28:09.224Z,17.40
2023-05-15T17:30:35.735Z,17.44
2023-05-15T17:33:02.253Z,17.44
2023-05-15T17:35:30.644Z,17.46
2023-05-15T17:37:59.101Z,17.38
2023-05-15T17:40:25.567Z,17.28
2023-05-15T17:42:51.968Z,17.27
2023-05-15T17:45:19.449Z,17.18
2023-05-15T17:47:45.849Z,17.17
2023-05-15T17:50:12.326Z,17.07
2023-05-15T17:52:38.749Z,17.00
2023-05-15T17:55:06.024Z,17.00
2023-05-15T17:57:32.538Z,17.02
2023-05-15T17:59:58.962Z,17.17
2023-05-15T18:02:25.683Z,17.15
2023-05-15T18:04:52.184Z,17.24
2023-05-15T18:07:18.617Z,17.15
2023-05-15T18:09:45.029Z,17.16
2023-05-15T18:12:11.424Z,17.08
2023-05-15T18:14:39.247Z,16.90
2023-05-15T18:17:06.888Z,16.92
2023-05-15T18:19:33.284Z,16.96
2023-05-15T18:22:02.974Z,16.96
2023-05-15T18:24:29.421Z,16.98
2023-05-15T18:26:55.839Z,16.92
2023-05-15T18:29:22.246Z,16.98
2023-05-15T18:31:48.745Z,16.85
2023-05-15T18:34:15.249Z,16.82
2023-05-15T18:36:41.664Z,16.63
2023-05-15T18:39:08.132Z,16.87
2023-05-15T18:41:34.534Z,16.67
2023-05-15T18:44:01.050Z,16.53
2023-05-15T18:46:28.393Z,16.62
2023-05-15T18:48:54.984Z,16.48
2023-05-15T18:51:21.408Z,16.44
2023-05-15T18:53:47.807Z,16.55
2023-05-15T18:56:14.218Z,16.45
2023-05-15T18:58:40.654Z,16.41
2023-05-15T19:01:07.124Z,16.35
2023-05-15T19:03:35.906Z,16.24
2023-05-15T19:06:02.342Z,16.34
2023-05-15T19:08:28.767Z,16.34
2023-05-15T19:10:55.283Z,16.22
2023-05-15T19:13:21.893Z,16.23
2023-05-15T19:15:52.293Z,16.26
2023-05-15T19:18:18.944Z,16.18
2023-05-15T19:20:49.603Z,16.07
2023-05-15T19:23:16.028Z,16.14
2023-05-15T19:25:42.599Z,16.12
2023-05-15T19:28:09.045Z,16.13
2023-05-15T19:30:35.554Z,16.10
2023-05-15T19:33:02.020Z,16.09
2023-05-15T19:35:28.473Z,16.17
2023-05-15T19:37:54.879Z,15.95
2023-05-15T19:40:21.262Z,16.04
2023-05-15T19:42:47.900Z,15.93
2023-05-15T19:45:14.342Z,16.05
2023-05-15T19:47:42.454Z,15.97
2023-05-15T19:50:09.949Z,15.87
2023-05-15T19:52:36.401Z,16.01
2023-05-15T19:55:02.807Z,16.08
2023-05-15T19:57:29.210Z,16.17
2023-05-15T19:59:55.638Z,16.20
2023-05-15T20:02:22.129Z,16.13
2023-05-15T20:04:48.586Z,16.15
2023-05-15T20:07:14.982Z,16.01
2023-05-15T20:09:41.376Z,16.07
2023-05-15T20:12:07.811Z,15.93
2023-05-15T20:14:34.263Z,15.97
2023-05-15T20:17:00.689Z,16.00
2023-05-15T20:19:27.850Z,16.07
2023-05-15T20:21:54.311Z,16.05
2023-05-15T20:24:25.537Z,16.05
2023-05-15T20:26:51.986Z,16.01
2023-05-15T20:29:18.622Z,16.06
2023-05-15T20:31:45.245Z,16.05
2023-05-15T20:34:15.113Z,15.86
2023-05-15T20:36:41.555Z,15.94
2023-05-15T20:39:08.537Z,15.85
2023-05-15T20:41:35.474Z,15.85
2023-05-15T20:44:01.934Z,15.84
2023-05-15T20:46:30.114Z,15.96
2023-05-15T20:48:57.527Z,15.80
2023-05-15T20:51:24.026Z,15.80
2023-05-15T20:53:50.868Z,15.86
2023-05-15T20:56:17.276Z,15.68
2023-05-15T20:58:44.145Z,15.59
2023-05-15T21:01:10.691Z,15.69
2023-05-15T21:03:37.173Z,15.78
2023-05-15T21:06:03.775Z,15.78
2023-05-15T21:08:30.261Z,15.84
2023-05-15T21:10:56.717Z,15.80
2023-05-15T21:13:23.104Z,15.72
2023-05-15T21:15:50.279Z,15.75
2023-05-15T21:18:16.784Z,15.81
2023-05-15T21:20:43.180Z,15.71
2023-05-15T21:23:09.636Z,15.54
2023-05-15T21:25:36.987Z,15.45
2023-05-15T21:28:04.448Z,15.35
2023-05-15T21:30:31.569Z,15.43
2023-05-15T21:32:58.028Z,15.23
2023-05-15T21:35:25.403Z,15.46
2023-05-15T21:37:51.822Z,15.42
2023-05-15T21:40:18.329Z,15.31
2023-05-15T21:42:44.755Z,15.40
2023-05-15T21:45:11.152Z,15.35
2023-05-15T21:47:37.596Z,15.30
2023-05-15T21:50:05.769Z,15.40
2023-05-15T21:52:32.183Z,15.15
2023-05-15T21:54:58.574Z,15.21
2023-05-15T21:57:24.980Z,15.15
2023-05-15T21:59:51.373Z,15.28
2023-05-15T22:02:17.792Z,15.17
2023-05-15T22:04:44.251Z,15.18
2023-05-15T22:07:11.186Z,15.18
2023-05-15T22:09:37.617Z,15.28
2023-05-15T22:12:04.620Z,15.37
2023-05-15T22:14:31.085Z,15.23
2023-05-15T22:16:57.544Z,15.28
2023-05-15T22:19:32.695Z,15.30
2023-05-15T22:22:01.270Z,15.25
2023-05-15T22:24:27.668Z,15.24
2023-05-15T22:26:54.193Z,15.20
2023-05-15T22:29:20.653Z,15.12
2023-05-15T22:31:47.351Z,15.06
2023-05-15T22:34:13.863Z,15.08
2023-05-15T22:36:40.932Z,15.01
2023-05-15T22:39:07.960Z,14.98
2023-05-15T22:41:34.393Z,14.94
2023-05-15T22:44:01.754Z,14.89
2023-05-15T22:46:28.283Z,14.83
2023-05-15T22:48:54.979Z,14.79
2023-05-15T22:51:22.195Z,14.88
2023-05-15T22:53:48.670Z,14.74
2023-05-15T22:56:15.064Z,14.58
2023-05-15T22:58:41.465Z,14.71
2023-05-15T23:01:08.381Z,14.67
2023-05-15T23:03:34.921Z,14.76
2023-05-15T23:06:01.392Z,14.71
2023-05-15T23:08:27.786Z,14.76
2023-05-15T23:10:56.022Z,14.67
2023-05-15T23:13:22.454Z,14.44
2023-05-15T23:15:48.966Z,14.55
2023-05-15T23:18:16.104Z,14.62
2023-05-15T23:20:42.537Z,14.49
2023-05-15T23:23:08.929Z,14.68
2023-05-15T23:25:35.474Z,14.55
2023-05-15T23:28:01.868Z,14.59
2023-05-15T23:30:28.396Z,14.55
2023-05-15T23:32:56.593Z,14.52
2023-05-15T23:35:23.024Z,14.40
2023-05-15T23:37:49.403Z,14.37
2023-05-15T23:40:15.960Z,14.28
2023-05-15T23:42:42.367Z,14.38
2023-05-15T23:45:09.608Z,14.47
2023-05-15T23:47:36.489Z,14.43
2023-05-15T23:50:03.633Z,14.43
2023-05-15T23:52:30.090Z,14.33
2023-05-15T23:54:56.485Z,14.38
2023-05-15T23:57:22.920Z,14.39
2023-05-15T23:59:49.360Z,14.22
